createdAt,value
2023-01-30T00:01:48.896Z,6.20
2023-01-30T00:04:17.349Z,6.20
2023-01-30T00:06:44.864Z,6.30
2023-01-30T00:09:15.079Z,6.30
2023-01-30T00:11:42.605Z,6.40
2023-01-30T00:14:10.010Z,6.40
2023-01-30T00:16:37.313Z,6.50
2023-01-30T00:19:04.582Z,6.50
2023-01-30T00:21:34.034Z,6.40
2023-01-30T00:24:01.347Z,6.50
2023-01-30T00:26:31.101Z,6.40
2023-01-30T00:29:00.765Z,6.60
2023-01-30T00:31:28.168Z,6.50
2023-01-30T00:33:55.396Z,6.50
2023-01-30T00:36:25.030Z,6.40
2023-01-30T00:38:52.288Z,6.40
2023-01-30T00:41:20.362Z,6.40
2023-01-30T00:44:06.602Z,6.40
2023-01-30T00:46:55.821Z,6.40
2023-01-30T00:49:23.075Z,6.40
2023-01-30T00:51:52.539Z,6.40
2023-01-30T00:54:19.786Z,6.40
2023-01-30T00:56:49.152Z,6.40
2023-01-30T00:59:16.437Z,6.30
2023-01-30T01:01:43.726Z,6.20
2023-01-30T01:04:11.153Z,6.20
2023-01-30T01:06:39.185Z,6.20
2023-01-30T01:09:07.409Z,6.30
2023-01-30T01:11:34.836Z,6.40
2023-01-30T01:14:03.582Z,6.40
2023-01-30T01:16:35.091Z,6.40
2023-01-30T01:19:03.298Z,6.40
2023-01-30T01:21:32.666Z,6.50
2023-01-30T01:24:00.916Z,6.60
2023-01-30T01:26:33.613Z,6.60
2023-01-30T01:29:03.474Z,6.60
2023-01-30T01:31:31.105Z,6.50
2023-01-30T01:34:00.825Z,6.50
2023-01-30T01:39:19.483Z,6.60
2023-01-30T01:41:48.850Z,6.70
2023-01-30T01:44:18.535Z,6.70
2023-01-30T01:46:54.620Z,6.70
2023-01-30T01:49:40.339Z,6.70
2023-01-30T01:52:16.994Z,6.60
2023-01-30T01:54:54.200Z,6.70
2023-01-30T01:57:31.292Z,6.70
2023-01-30T02:00:12.636Z,6.80
2023-01-30T02:02:47.671Z,6.80
2023-01-30T02:05:17.748Z,6.80
2023-01-30T02:08:01.149Z,6.80
2023-01-30T02:10:54.413Z,6.70
2023-01-30T02:13:22.167Z,6.80
2023-01-30T02:15:50.285Z,6.80
2023-01-30T02:18:18.572Z,6.80
2023-01-30T02:21:04.698Z,6.90
2023-01-30T02:23:57.323Z,6.90
2023-01-30T02:27:02.139Z,6.90
2023-01-30T02:30:16.115Z,7.00
2023-01-30T02:32:52.173Z,7.00
2023-01-30T02:35:37.662Z,6.90
2023-01-30T02:38:31.234Z,7.00
2023-01-30T02:41:27.099Z,6.90
2023-01-30T02:44:09.291Z,6.90
2023-01-30T02:47:02.123Z,6.90
2023-01-30T02:49:42.266Z,7.00
2023-01-30T02:52:12.925Z,7.00
2023-01-30T02:54:40.128Z,7.10
2023-01-30T02:57:36.887Z,7.10
2023-01-30T03:00:06.274Z,7.10
2023-01-30T03:02:36.623Z,7.10
2023-01-30T03:05:34.727Z,7.20
2023-01-30T03:08:13.938Z,7.20
2023-01-30T03:10:51.140Z,7.20
2023-01-30T03:13:35.194Z,7.20
2023-01-30T03:16:12.745Z,7.30
2023-01-30T03:18:44.337Z,7.30
2023-01-30T03:21:12.377Z,7.30
2023-01-30T03:23:39.745Z,7.30
2023-01-30T03:26:16.442Z,7.30
2023-01-30T03:28:45.082Z,7.30
2023-01-30T03:31:12.360Z,7.40
2023-01-30T03:33:39.593Z,7.40
2023-01-30T03:36:07.024Z,7.40
2023-01-30T03:38:37.322Z,7.40
2023-01-30T03:41:07.624Z,7.40
2023-01-30T03:43:37.319Z,7.50
2023-01-30T03:46:07.073Z,7.50
2023-01-30T03:48:34.356Z,7.50
2023-01-30T03:51:01.921Z,7.50
2023-01-30T03:53:29.166Z,7.50
2023-01-30T03:55:56.377Z,7.50
2023-01-30T03:58:23.635Z,7.50
2023-01-30T04:00:50.885Z,7.50
2023-01-30T04:03:18.216Z,7.60
2023-01-30T04:05:47.970Z,7.50
2023-01-30T04:08:19.892Z,7.50
2023-01-30T04:10:47.129Z,7.40
2023-01-30T04:13:14.442Z,7.40
2023-01-30T04:15:41.743Z,7.40
2023-01-30T04:18:08.980Z,7.40
2023-01-30T04:20:36.273Z,7.40
2023-01-30T04:23:05.656Z,7.30
2023-01-30T04:25:32.983Z,7.40
2023-01-30T04:28:00.259Z,7.40
2023-01-30T04:30:29.685Z,7.30
2023-01-30T04:32:56.952Z,7.30
2023-01-30T04:35:24.295Z,7.40
2023-01-30T04:37:51.500Z,7.30
2023-01-30T04:40:18.846Z,7.40
2023-01-30T04:42:46.085Z,7.40
2023-01-30T04:45:13.351Z,7.40
2023-01-30T04:47:42.913Z,7.40
2023-01-30T04:50:13.122Z,7.40
2023-01-30T04:52:40.410Z,7.40
2023-01-30T04:55:10.499Z,7.50
2023-01-30T04:57:37.821Z,7.60
2023-01-30T05:00:07.950Z,7.50
2023-01-30T05:02:35.212Z,7.40
2023-01-30T05:05:04.741Z,7.40
2023-01-30T05:07:32.025Z,7.40
2023-01-30T05:09:59.251Z,7.50
2023-01-30T05:12:28.961Z,7.50
2023-01-30T05:14:56.346Z,7.50
2023-01-30T05:17:23.660Z,7.50
2023-01-30T05:19:53.267Z,7.50
2023-01-30T05:22:22.739Z,7.60
2023-01-30T05:24:53.003Z,7.60
2023-01-30T05:27:22.396Z,7.60
2023-01-30T05:29:52.020Z,7.60
2023-01-30T05:32:20.256Z,7.70
2023-01-30T05:34:51.273Z,7.70
2023-01-30T05:37:18.680Z,7.70
2023-01-30T05:39:48.391Z,7.80
2023-01-30T05:42:15.919Z,7.80
2023-01-30T05:44:43.122Z,7.80
2023-01-30T05:47:12.758Z,7.70
2023-01-30T05:49:40.001Z,7.80
2023-01-30T05:52:07.346Z,7.80
2023-01-30T05:54:35.551Z,7.80
2023-01-30T05:57:07.572Z,7.90
2023-01-30T05:59:34.821Z,7.90
2023-01-30T06:02:04.656Z,7.90
2023-01-30T06:04:35.520Z,7.90
2023-01-30T06:07:02.816Z,7.90
2023-01-30T06:09:30.097Z,7.90
2023-01-30T06:11:57.353Z,7.90
2023-01-30T06:14:24.736Z,7.90
2023-01-30T06:16:52.041Z,7.80
2023-01-30T06:19:19.369Z,7.80
2023-01-30T06:21:48.806Z,7.80
2023-01-30T06:24:18.197Z,7.70
2023-01-30T06:26:45.472Z,7.80
2023-01-30T06:29:15.068Z,7.80
2023-01-30T06:31:44.517Z,7.70
2023-01-30T06:34:12.203Z,7.80
2023-01-30T06:36:39.491Z,7.80
2023-01-30T06:39:09.134Z,7.70
2023-01-30T06:41:36.392Z,7.80
2023-01-30T06:44:03.757Z,7.80
2023-01-30T06:46:31.042Z,7.90
2023-01-30T06:49:01.845Z,7.80
2023-01-30T06:51:29.129Z,7.80
2023-01-30T06:53:56.388Z,7.80
2023-01-30T06:56:23.758Z,7.70
2023-01-30T06:58:51.020Z,7.70
2023-01-30T07:01:19.406Z,7.70
2023-01-30T07:03:47.423Z,7.90
2023-01-30T07:06:17.042Z,7.90
2023-01-30T07:08:46.757Z,7.90
2023-01-30T07:11:14.026Z,8.00
2023-01-30T07:13:43.397Z,8.00
2023-01-30T07:16:13.204Z,8.00
2023-01-30T07:18:42.732Z,7.90
2023-01-30T07:21:10.129Z,7.90
2023-01-30T07:23:37.486Z,8.00
2023-01-30T07:26:06.189Z,8.10
2023-01-30T07:28:33.513Z,8.10
2023-01-30T07:31:01.326Z,8.00
2023-01-30T07:33:30.810Z,8.10
2023-01-30T07:35:58.098Z,8.10
2023-01-30T07:38:27.550Z,8.10
2023-01-30T07:40:56.982Z,8.10
2023-01-30T07:43:24.573Z,8.00
2023-01-30T07:45:51.984Z,8.10
2023-01-30T07:48:22.585Z,8.10
2023-01-30T07:50:49.981Z,8.10
2023-01-30T07:53:20.986Z,8.10
2023-01-30T07:55:50.577Z,8.10
2023-01-30T07:58:17.868Z,8.10
2023-01-30T08:00:45.408Z,8.00
2023-01-30T08:03:20.744Z,7.90
2023-01-30T08:05:48.077Z,7.80
2023-01-30T08:08:18.075Z,7.80
2023-01-30T08:10:47.715Z,7.70
2023-01-30T08:13:15.174Z,7.90
2023-01-30T08:15:42.399Z,8.00
2023-01-30T08:18:11.820Z,8.10
2023-01-30T08:20:39.091Z,8.10
2023-01-30T08:23:06.368Z,8.00
2023-01-30T08:25:35.448Z,8.00
2023-01-30T08:28:03.103Z,8.00
2023-01-30T08:30:31.141Z,7.90
2023-01-30T08:32:58.610Z,7.90
2023-01-30T08:35:30.214Z,7.80
2023-01-30T08:37:57.510Z,7.90
2023-01-30T08:40:27.307Z,8.00
2023-01-30T08:42:56.927Z,8.10
2023-01-30T08:45:24.204Z,8.10
2023-01-30T08:47:51.466Z,8.20
2023-01-30T08:50:21.037Z,8.30
2023-01-30T08:52:50.935Z,8.50
2023-01-30T08:55:18.591Z,8.50
2023-01-30T08:57:45.952Z,8.70
2023-01-30T09:00:14.097Z,9.30
2023-01-30T09:02:41.853Z,9.90
2023-01-30T09:05:11.859Z,10.40
2023-01-30T09:07:39.169Z,10.90
2023-01-30T09:10:06.778Z,11.00
2023-01-30T09:12:34.305Z,11.10
2023-01-30T09:15:03.957Z,10.80
2023-01-30T09:17:31.220Z,11.00
2023-01-30T09:19:58.464Z,11.50
2023-01-30T09:22:28.305Z,11.80
2023-01-30T09:24:55.571Z,12.20
2023-01-30T09:27:25.046Z,12.40
2023-01-30T09:29:54.816Z,12.70
2023-01-30T09:32:22.174Z,12.20
2023-01-30T09:34:51.659Z,12.20
2023-01-30T09:37:18.921Z,12.30
2023-01-30T09:39:46.215Z,12.30
2023-01-30T09:42:13.578Z,12.60
2023-01-30T09:45:18.768Z,13.00
2023-01-30T09:47:54.209Z,13.20
2023-01-30T09:50:37.220Z,13.60
2023-01-30T09:53:09.991Z,13.50
2023-01-30T09:55:42.168Z,13.00
2023-01-30T09:58:18.703Z,13.20
2023-01-30T10:00:54.520Z,13.70
2023-01-30T10:03:39.761Z,13.70
2023-01-30T10:06:16.905Z,13.20
2023-01-30T10:09:10.276Z,13.60
2023-01-30T10:12:23.021Z,13.90
2023-01-30T10:15:09.011Z,13.50
2023-01-30T10:18:17.695Z,13.20
2023-01-30T10:21:06.641Z,12.80
2023-01-30T10:23:44.538Z,13.10
2023-01-30T10:26:15.756Z,14.20
2023-01-30T10:28:55.557Z,14.20
2023-01-30T10:31:33.854Z,13.80
2023-01-30T10:34:04.917Z,13.70
2023-01-30T10:36:42.996Z,14.00
2023-01-30T10:39:56.368Z,13.60
2023-01-30T10:42:41.306Z,13.70
2023-01-30T10:45:27.729Z,14.20
2023-01-30T10:48:04.944Z,14.10
2023-01-30T10:50:53.463Z,13.40
2023-01-30T10:53:36.658Z,12.30
2023-01-30T10:56:14.327Z,11.60
2023-01-30T10:59:11.685Z,11.20
2023-01-30T11:01:49.997Z,11.00
2023-01-30T11:04:25.392Z,10.90
2023-01-30T11:06:54.529Z,10.70
2023-01-30T11:09:24.616Z,10.60
2023-01-30T11:11:54.060Z,10.30
2023-01-30T11:14:21.759Z,10.40
2023-01-30T11:16:58.511Z,10.40
2023-01-30T11:19:34.472Z,10.30
2023-01-30T11:22:06.807Z,10.40
2023-01-30T11:24:45.205Z,10.50
2023-01-30T11:27:18.800Z,10.40
2023-01-30T11:29:50.484Z,10.30
2023-01-30T11:32:27.964Z,10.20
2023-01-30T11:35:23.953Z,10.10
2023-01-30T11:37:53.384Z,10.20
2023-01-30T11:40:26.893Z,10.10
2023-01-30T11:43:10.889Z,9.90
2023-01-30T11:45:45.463Z,9.90
2023-01-30T11:48:32.751Z,9.90
2023-01-30T11:51:10.721Z,9.80
2023-01-30T11:53:45.328Z,9.70
2023-01-30T11:56:25.918Z,9.80
2023-01-30T11:58:59.135Z,9.80
2023-01-30T12:01:38.027Z,9.90
2023-01-30T12:04:11.138Z,9.90
2023-01-30T12:06:45.521Z,9.90
2023-01-30T12:09:39.831Z,9.70
2023-01-30T12:12:29.174Z,9.80
2023-01-30T12:15:23.778Z,9.90
2023-01-30T12:18:13.532Z,9.90
2023-01-30T12:21:02.778Z,10.10
2023-01-30T12:23:57.884Z,10.00
2023-01-30T12:26:36.432Z,10.00
2023-01-30T12:29:29.419Z,9.90
2023-01-30T12:32:16.376Z,9.90
2023-01-30T12:34:47.979Z,9.70
2023-01-30T12:37:56.848Z,9.80
2023-01-30T12:40:28.732Z,9.90
2023-01-30T12:43:17.888Z,9.90
2023-01-30T12:45:57.475Z,9.80
2023-01-30T12:48:48.553Z,9.90
2023-01-30T12:51:27.506Z,10.00
2023-01-30T12:53:59.948Z,10.00
2023-01-30T12:56:49.393Z,9.90
2023-01-30T12:59:33.035Z,9.90
2023-01-30T13:02:00.240Z,9.90
2023-01-30T13:05:04.649Z,9.80
2023-01-30T13:08:19.641Z,9.90
2023-01-30T13:11:07.940Z,9.80
2023-01-30T13:13:49.494Z,9.70
2023-01-30T13:16:44.924Z,9.80
2023-01-30T13:19:31.238Z,10.00
2023-01-30T13:22:24.520Z,10.20
2023-01-30T13:25:23.707Z,10.60
2023-01-30T13:27:58.852Z,11.20
2023-01-30T13:30:29.910Z,11.30
2023-01-30T13:33:06.753Z,11.40
2023-01-30T13:35:43.759Z,11.30
2023-01-30T13:38:18.242Z,11.00
2023-01-30T13:40:48.601Z,10.90
2023-01-30T13:43:27.765Z,11.50
2023-01-30T13:46:02.701Z,11.80
2023-01-30T13:48:57.653Z,11.50
2023-01-30T13:51:45.876Z,11.10
2023-01-30T13:54:22.189Z,10.90
2023-01-30T13:56:58.959Z,10.90
2023-01-30T13:59:50.991Z,10.90
2023-01-30T14:02:23.907Z,11.40
2023-01-30T14:04:55.921Z,12.30
2023-01-30T14:07:38.622Z,12.40
2023-01-30T14:10:17.937Z,11.70
2023-01-30T14:12:52.639Z,11.50
2023-01-30T14:15:29.157Z,11.00
2023-01-30T14:18:01.817Z,10.80
2023-01-30T14:20:32.504Z,10.70
2023-01-30T14:23:06.533Z,10.60
2023-01-30T14:25:42.986Z,10.80
2023-01-30T14:28:13.006Z,10.50
2023-01-30T14:30:50.507Z,10.10
2023-01-30T14:33:23.966Z,10.00
2023-01-30T14:36:03.282Z,9.90
2023-01-30T14:38:38.673Z,9.80
2023-01-30T14:41:08.030Z,9.80
2023-01-30T14:43:48.525Z,9.70
2023-01-30T14:46:20.330Z,9.70
2023-01-30T14:49:25.372Z,9.60
2023-01-30T14:51:56.412Z,9.50
2023-01-30T14:54:40.205Z,9.60
2023-01-30T14:57:19.973Z,9.60
2023-01-30T14:59:54.112Z,9.80
2023-01-30T15:02:44.280Z,9.80
2023-01-30T15:05:21.425Z,9.50
2023-01-30T15:07:54.178Z,9.40
2023-01-30T15:10:38.512Z,9.40
2023-01-30T15:13:27.530Z,9.30
2023-01-30T15:16:47.283Z,9.20
2023-01-30T15:19:43.485Z,9.20
2023-01-30T15:22:39.962Z,9.20
2023-01-30T15:25:49.812Z,9.20
2023-01-30T15:28:31.775Z,9.20
2023-01-30T15:31:13.673Z,9.30
2023-01-30T15:33:45.824Z,9.30
2023-01-30T15:36:32.044Z,9.30
2023-01-30T15:39:27.940Z,9.20
2023-01-30T15:42:07.913Z,9.20
2023-01-30T15:44:54.897Z,9.30
2023-01-30T15:47:38.289Z,9.20
2023-01-30T15:50:08.422Z,9.20
2023-01-30T15:52:45.126Z,9.20
2023-01-30T15:55:23.678Z,9.30
2023-01-30T15:57:57.187Z,9.30
2023-01-30T16:00:24.577Z,9.30
2023-01-30T16:02:57.395Z,9.50
2023-01-30T16:05:26.528Z,9.60
2023-01-30T16:07:56.136Z,9.70
2023-01-30T16:10:26.294Z,9.70
2023-01-30T16:13:02.557Z,9.80
2023-01-30T16:15:41.737Z,9.70
2023-01-30T16:18:33.410Z,9.60
2023-01-30T16:21:07.771Z,9.60
2023-01-30T16:23:42.888Z,9.40
2023-01-30T16:26:18.481Z,9.30
2023-01-30T16:28:46.088Z,9.10
2023-01-30T16:31:16.758Z,9.00
2023-01-30T16:33:51.384Z,9.00
2023-01-30T16:36:21.854Z,9.00
2023-01-30T16:38:50.205Z,9.00
2023-01-30T16:41:36.927Z,8.90
2023-01-30T16:44:19.443Z,9.00
2023-01-30T16:47:21.889Z,9.10
2023-01-30T16:49:50.331Z,9.10
2023-01-30T16:52:24.009Z,9.20
2023-01-30T16:54:59.951Z,9.20
2023-01-30T16:57:45.605Z,9.30
2023-01-30T17:00:21.685Z,9.50
2023-01-30T17:02:59.243Z,9.60
2023-01-30T17:05:31.903Z,9.60
2023-01-30T17:08:02.295Z,9.70
2023-01-30T17:10:51.552Z,9.70
2023-01-30T17:13:36.865Z,9.70
2023-01-30T17:16:32.665Z,9.50
2023-01-30T17:19:00.956Z,9.30
2023-01-30T17:21:33.489Z,9.30
2023-01-30T17:24:07.419Z,9.30
2023-01-30T17:26:39.624Z,9.20
2023-01-30T17:29:23.324Z,9.20
2023-01-30T17:31:57.217Z,8.90
2023-01-30T17:34:28.953Z,9.00
2023-01-30T17:36:56.417Z,8.90
2023-01-30T17:39:26.719Z,8.90
2023-01-30T17:41:56.174Z,9.00
2023-01-30T17:44:23.839Z,8.90
2023-01-30T17:46:51.180Z,8.80
2023-01-30T17:49:21.826Z,8.80
2023-01-30T17:51:52.130Z,8.80
2023-01-30T17:54:22.594Z,8.70
2023-01-30T17:56:55.019Z,8.70
2023-01-30T17:59:22.682Z,8.60
2023-01-30T18:01:55.378Z,8.60
2023-01-30T18:04:24.816Z,8.50
2023-01-30T18:07:01.838Z,8.50
2023-01-30T18:09:32.045Z,8.50
2023-01-30T18:12:01.586Z,8.40
2023-01-30T18:14:28.802Z,8.30
2023-01-30T18:17:00.401Z,8.20
2023-01-30T18:19:29.679Z,8.00
2023-01-30T18:21:59.111Z,8.10
2023-01-30T18:24:26.553Z,8.00
2023-01-30T18:26:56.269Z,8.00
2023-01-30T18:29:23.779Z,8.00
2023-01-30T18:31:51.522Z,8.00
2023-01-30T18:34:19.010Z,8.10
2023-01-30T18:36:46.278Z,8.00
2023-01-30T18:39:14.658Z,8.10
2023-01-30T18:41:44.454Z,8.10
2023-01-30T18:44:11.795Z,8.00
2023-01-30T18:46:39.149Z,7.80
2023-01-30T18:49:11.167Z,7.70
2023-01-30T18:51:41.026Z,7.70
2023-01-30T18:54:08.314Z,7.70
2023-01-30T18:56:36.478Z,7.70
2023-01-30T18:59:06.927Z,7.70
2023-01-30T19:01:39.403Z,7.80
2023-01-30T19:04:12.910Z,7.80
2023-01-30T19:06:42.106Z,7.70
2023-01-30T19:09:19.021Z,7.70
2023-01-30T19:12:07.360Z,7.70
2023-01-30T19:14:34.698Z,7.70
2023-01-30T19:17:02.027Z,7.60
2023-01-30T19:19:32.527Z,7.70
2023-01-30T19:21:59.890Z,7.80
2023-01-30T19:24:27.261Z,8.00
2023-01-30T19:26:54.602Z,8.00
2023-01-30T19:29:24.296Z,8.00
2023-01-30T19:31:51.602Z,8.00
2023-01-30T19:34:19.162Z,7.80
2023-01-30T19:36:46.874Z,7.80
2023-01-30T19:39:14.178Z,7.70
2023-01-30T19:41:44.134Z,7.70
2023-01-30T19:44:15.160Z,7.70
2023-01-30T19:46:43.554Z,7.70
2023-01-30T19:49:14.301Z,7.50
2023-01-30T19:51:42.532Z,7.40
2023-01-30T19:54:11.767Z,7.30
2023-01-30T19:56:41.925Z,7.10
2023-01-30T19:59:12.766Z,7.00
2023-01-30T20:01:40.702Z,7.00
2023-01-30T20:04:10.593Z,7.00
2023-01-30T20:06:38.281Z,6.90
2023-01-30T20:09:11.241Z,6.90
2023-01-30T20:11:40.892Z,6.80
2023-01-30T20:14:09.710Z,6.90
2023-01-30T20:16:39.617Z,6.90
2023-01-30T20:19:11.877Z,6.90
2023-01-30T20:21:40.090Z,6.90
2023-01-30T20:24:07.963Z,6.80
2023-01-30T20:26:37.028Z,6.90
2023-01-30T20:29:08.497Z,7.00
2023-01-30T20:31:38.308Z,7.10
2023-01-30T20:34:08.219Z,7.10
2023-01-30T20:36:35.786Z,7.10
2023-01-30T20:39:07.630Z,7.00
2023-01-30T20:41:39.819Z,6.90
2023-01-30T20:44:10.945Z,6.90
2023-01-30T20:46:43.366Z,6.90
2023-01-30T20:49:15.958Z,6.90
2023-01-30T20:51:43.856Z,7.00
2023-01-30T20:54:13.319Z,7.10
2023-01-30T20:56:43.104Z,7.10
2023-01-30T20:59:12.717Z,7.10
2023-01-30T21:01:40.568Z,7.10
2023-01-30T21:04:10.208Z,7.00
2023-01-30T21:06:44.777Z,7.00
2023-01-30T21:09:19.204Z,7.10
2023-01-30T21:11:50.985Z,7.00
2023-01-30T21:14:18.455Z,6.90
2023-01-30T21:16:46.473Z,6.90
2023-01-30T21:19:16.481Z,6.80
2023-01-30T21:21:55.494Z,6.70
2023-01-30T21:24:29.640Z,6.70
2023-01-30T21:26:57.120Z,6.60
2023-01-30T21:29:26.670Z,6.60
2023-01-30T21:31:55.601Z,6.60
2023-01-30T21:34:23.558Z,6.70
2023-01-30T21:37:12.092Z,6.70
2023-01-30T21:39:58.152Z,6.70
2023-01-30T21:42:43.767Z,6.70
2023-01-30T21:45:11.022Z,6.70
2023-01-30T21:47:38.821Z,6.80
2023-01-30T21:50:06.657Z,6.70
2023-01-30T21:52:33.967Z,6.70
2023-01-30T21:55:03.881Z,6.60
2023-01-30T21:57:36.480Z,6.70
2023-01-30T22:00:04.612Z,6.70
2023-01-30T22:02:31.846Z,6.80
2023-01-30T22:04:59.110Z,6.80
2023-01-30T22:07:26.360Z,6.70
2023-01-30T22:09:54.058Z,6.60
2023-01-30T22:12:27.205Z,6.60
2023-01-30T22:14:54.886Z,6.50
2023-01-30T22:17:22.212Z,6.40
2023-01-30T22:19:49.817Z,6.30
2023-01-30T22:22:20.610Z,6.10
2023-01-30T22:24:50.243Z,6.10
2023-01-30T22:27:19.942Z,6.10
2023-01-30T22:29:47.146Z,6.00
2023-01-30T22:32:16.815Z,6.10
2023-01-30T22:34:44.057Z,6.10
2023-01-30T22:37:11.300Z,6.20
2023-01-30T22:39:40.998Z,6.20
2023-01-30T22:42:08.667Z,6.30
2023-01-30T22:44:39.629Z,6.30
2023-01-30T22:47:06.953Z,6.20
2023-01-30T22:49:34.249Z,6.10
2023-01-30T22:52:01.772Z,6.00
2023-01-30T22:54:29.311Z,6.00
2023-01-30T22:56:56.569Z,6.10
2023-01-30T22:59:23.952Z,6.10
2023-01-30T23:01:53.748Z,6.20
2023-01-30T23:04:23.083Z,6.20
2023-01-30T23:06:51.943Z,6.20
2023-01-30T23:09:21.985Z,6.10
2023-01-30T23:12:11.342Z,6.10
2023-01-30T23:14:39.347Z,6.00
2023-01-30T23:17:26.201Z,6.00
2023-01-30T23:19:57.551Z,6.00
2023-01-30T23:22:24.908Z,5.90
2023-01-30T23:24:54.721Z,5.80
2023-01-30T23:27:22.063Z,5.80
2023-01-30T23:29:49.316Z,5.70
2023-01-30T23:32:19.872Z,5.70
2023-01-30T23:34:50.082Z,5.60
2023-01-30T23:37:40.122Z,5.80
2023-01-30T23:40:08.230Z,5.80
2023-01-30T23:42:35.462Z,5.90
2023-01-30T23:45:02.797Z,5.80
2023-01-30T23:47:30.072Z,5.80
2023-01-30T23:49:59.674Z,5.80
2023-01-30T23:52:28.987Z,5.80
2023-01-30T23:54:56.239Z,5.80
2023-01-30T23:57:25.954Z,5.60
2023-01-30T23:59:53.216Z,5.70
